sensor_id;sensor_type;location;lat;lon;timestamp;P1;durP1;ratioP1;P2;durP2;ratioP2
37997;SDS011;24079;51.824;4.682;2023-03-01T00:01:20;24.92;;;15.70;;
37997;SDS011;24079;51.824;4.682;2023-03-01T00:03:49;25.65;;;15.23;;
37997;SDS011;24079;51.824;4.682;2023-03-01T00:06:16;24.75;;;15.55;;
37997;SDS011;24079;51.824;4.682;2023-03-01T00:08:42;26.48;;;15.30;;
37997;SDS011;24079;51.824;4.682;2023-03-01T00:11:09;23.52;;;15.90;;
37997;SDS011;24079;51.824;4.682;2023-03-01T00:16:06;22.83;;;14.55;;
37997;SDS011;24079;51.824;4.682;2023-03-01T00:18:34;22.83;;;14.90;;
37997;SDS011;24079;51.824;4.682;2023-03-01T00:20:59;25.20;;;15.77;;
37997;SDS011;24079;51.824;4.682;2023-03-01T00:23:25;23.90;;;15.55;;
37997;SDS011;24079;51.824;4.682;2023-03-01T00:25:51;26.08;;;16.80;;
37997;SDS011;24079;51.824;4.682;2023-03-01T00:28:18;29.42;;;16.63;;
37997;SDS011;24079;51.824;4.682;2023-03-01T00:30:44;26.52;;;15.70;;
37997;SDS011;24079;51.824;4.682;2023-03-01T00:33:11;27.52;;;17.38;;
37997;SDS011;24079;51.824;4.682;2023-03-01T00:35:36;28.48;;;17.38;;
37997;SDS011;24079;51.824;4.682;2023-03-01T00:38:02;28.27;;;18.05;;
37997;SDS011;24079;51.824;4.682;2023-03-01T00:40:29;30.92;;;18.08;;
37997;SDS011;24079;51.824;4.682;2023-03-01T00:42:56;26.05;;;16.58;;
37997;SDS011;24079;51.824;4.682;2023-03-01T00:45:22;26.05;;;17.80;;
37997;SDS011;24079;51.824;4.682;2023-03-01T00:47:50;25.60;;;17.20;;
37997;SDS011;24079;51.824;4.682;2023-03-01T00:50:17;26.85;;;18.42;;
37997;SDS011;24079;51.824;4.682;2023-03-01T00:52:43;26.83;;;17.25;;
37997;SDS011;24079;51.824;4.682;2023-03-01T00:55:09;29.27;;;18.55;;
37997;SDS011;24079;51.824;4.682;2023-03-01T00:57:35;28.90;;;17.92;;
37997;SDS011;24079;51.824;4.682;2023-03-01T01:00:00;25.45;;;17.52;;
37997;SDS011;24079;51.824;4.682;2023-03-01T01:02:26;27.48;;;17.80;;
37997;SDS011;24079;51.824;4.682;2023-03-01T01:04:52;25.10;;;17.30;;
37997;SDS011;24079;51.824;4.682;2023-03-01T01:07:18;30.35;;;17.80;;
37997;SDS011;24079;51.824;4.682;2023-03-01T01:09:45;25.48;;;17.83;;
37997;SDS011;24079;51.824;4.682;2023-03-01T01:12:11;30.27;;;17.80;;
37997;SDS011;24079;51.824;4.682;2023-03-01T01:14:37;29.08;;;18.67;;
37997;SDS011;24079;51.824;4.682;2023-03-01T01:17:03;28.45;;;18.63;;
37997;SDS011;24079;51.824;4.682;2023-03-01T01:19:29;25.13;;;17.58;;
37997;SDS011;24079;51.824;4.682;2023-03-01T01:21:55;25.73;;;17.90;;
37997;SDS011;24079;51.824;4.682;2023-03-01T01:24:20;28.33;;;18.92;;
37997;SDS011;24079;51.824;4.682;2023-03-01T01:26:46;26.02;;;18.45;;
37997;SDS011;24079;51.824;4.682;2023-03-01T01:29:12;30.48;;;19.38;;
37997;SDS011;24079;51.824;4.682;2023-03-01T01:31:38;28.83;;;18.17;;
37997;SDS011;24079;51.824;4.682;2023-03-01T01:34:06;30.48;;;18.55;;
37997;SDS011;24079;51.824;4.682;2023-03-01T01:36:34;30.02;;;19.15;;
37997;SDS011;24079;51.824;4.682;2023-03-01T01:39:00;28.17;;;18.77;;
37997;SDS011;24079;51.824;4.682;2023-03-01T01:41:27;30.70;;;18.50;;
37997;SDS011;24079;51.824;4.682;2023-03-01T01:46:38;31.67;;;18.27;;
37997;SDS011;24079;51.824;4.682;2023-03-01T01:52:18;28.80;;;18.60;;
37997;SDS011;24079;51.824;4.682;2023-03-01T01:57:22;30.90;;;19.77;;
37997;SDS011;24079;51.824;4.682;2023-03-01T01:59:54;28.25;;;19.45;;
37997;SDS011;24079;51.824;4.682;2023-03-01T02:02:24;30.70;;;20.23;;
37997;SDS011;24079;51.824;4.682;2023-03-01T02:04:52;33.40;;;21.52;;
37997;SDS011;24079;51.824;4.682;2023-03-01T02:07:35;35.67;;;20.92;;
37997;SDS011;24079;51.824;4.682;2023-03-01T02:10:04;32.47;;;21.52;;
37997;SDS011;24079;51.824;4.682;2023-03-01T02:12:30;31.25;;;21.17;;
37997;SDS011;24079;51.824;4.682;2023-03-01T02:14:57;29.98;;;21.40;;
37997;SDS011;24079;51.824;4.682;2023-03-01T02:17:22;31.55;;;21.20;;
37997;SDS011;24079;51.824;4.682;2023-03-01T02:24:59;34.55;;;22.73;;
37997;SDS011;24079;51.824;4.682;2023-03-01T02:30:40;34.28;;;23.58;;
37997;SDS011;24079;51.824;4.682;2023-03-01T02:33:33;35.95;;;23.58;;
37997;SDS011;24079;51.824;4.682;2023-03-01T02:36:02;38.45;;;24.63;;
37997;SDS011;24079;51.824;4.682;2023-03-01T02:38:31;36.45;;;24.75;;
37997;SDS011;24079;51.824;4.682;2023-03-01T02:40:57;38.63;;;24.13;;
37997;SDS011;24079;51.824;4.682;2023-03-01T02:43:25;36.20;;;24.17;;
37997;SDS011;24079;51.824;4.682;2023-03-01T02:45:57;37.78;;;24.90;;
37997;SDS011;24079;51.824;4.682;2023-03-01T02:48:27;40.25;;;24.27;;
37997;SDS011;24079;51.824;4.682;2023-03-01T02:50:57;42.00;;;25.45;;
37997;SDS011;24079;51.824;4.682;2023-03-01T02:53:45;41.55;;;25.55;;
37997;SDS011;24079;51.824;4.682;2023-03-01T02:56:49;44.03;;;25.88;;
37997;SDS011;24079;51.824;4.682;2023-03-01T02:59:19;37.95;;;25.40;;
37997;SDS011;24079;51.824;4.682;2023-03-01T03:01:47;40.25;;;26.27;;
37997;SDS011;24079;51.824;4.682;2023-03-01T03:04:14;42.53;;;26.67;;
37997;SDS011;24079;51.824;4.682;2023-03-01T03:06:45;41.90;;;26.65;;
37997;SDS011;24079;51.824;4.682;2023-03-01T03:09:12;41.03;;;25.80;;
37997;SDS011;24079;51.824;4.682;2023-03-01T03:11:39;42.47;;;26.98;;
37997;SDS011;24079;51.824;4.682;2023-03-01T03:14:05;41.13;;;26.05;;
37997;SDS011;24079;51.824;4.682;2023-03-01T03:16:47;39.92;;;26.20;;
37997;SDS011;24079;51.824;4.682;2023-03-01T03:19:15;40.95;;;25.80;;
37997;SDS011;24079;51.824;4.682;2023-03-01T03:21:42;43.03;;;25.60;;
37997;SDS011;24079;51.824;4.682;2023-03-01T03:24:07;39.60;;;26.02;;
37997;SDS011;24079;51.824;4.682;2023-03-01T03:26:34;40.38;;;25.58;;
37997;SDS011;24079;51.824;4.682;2023-03-01T03:28:59;40.50;;;26.17;;
37997;SDS011;24079;51.824;4.682;2023-03-01T03:31:26;41.25;;;25.42;;
37997;SDS011;24079;51.824;4.682;2023-03-01T03:33:52;39.70;;;25.95;;
37997;SDS011;24079;51.824;4.682;2023-03-01T03:36:20;37.53;;;24.90;;
37997;SDS011;24079;51.824;4.682;2023-03-01T03:38:47;40.08;;;25.17;;
37997;SDS011;24079;51.824;4.682;2023-03-01T03:41:14;39.28;;;26.17;;
37997;SDS011;24079;51.824;4.682;2023-03-01T03:43:40;40.30;;;25.92;;
37997;SDS011;24079;51.824;4.682;2023-03-01T03:46:07;39.17;;;25.70;;
37997;SDS011;24079;51.824;4.682;2023-03-01T03:48:38;37.60;;;24.88;;
37997;SDS011;24079;51.824;4.682;2023-03-01T03:51:12;36.10;;;24.10;;
37997;SDS011;24079;51.824;4.682;2023-03-01T03:53:39;37.47;;;24.23;;
37997;SDS011;24079;51.824;4.682;2023-03-01T03:56:05;34.72;;;23.10;;
37997;SDS011;24079;51.824;4.682;2023-03-01T03:58:31;39.13;;;24.63;;
37997;SDS011;24079;51.824;4.682;2023-03-01T04:00:57;37.97;;;24.63;;
37997;SDS011;24079;51.824;4.682;2023-03-01T04:03:24;38.15;;;24.23;;
37997;SDS011;24079;51.824;4.682;2023-03-01T04:05:51;37.22;;;23.90;;
37997;SDS011;24079;51.824;4.682;2023-03-01T04:08:18;37.05;;;23.05;;
37997;SDS011;24079;51.824;4.682;2023-03-01T04:10:46;32.88;;;22.10;;
37997;SDS011;24079;51.824;4.682;2023-03-01T04:13:15;40.25;;;23.77;;
37997;SDS011;24079;51.824;4.682;2023-03-01T04:15:44;32.55;;;22.65;;
37997;SDS011;24079;51.824;4.682;2023-03-01T04:18:12;36.42;;;24.23;;
37997;SDS011;24079;51.824;4.682;2023-03-01T04:20:39;36.00;;;23.30;;
37997;SDS011;24079;51.824;4.682;2023-03-01T04:23:08;38.85;;;23.25;;
37997;SDS011;24079;51.824;4.682;2023-03-01T04:25:56;36.38;;;23.25;;
37997;SDS011;24079;51.824;4.682;2023-03-01T04:28:27;40.15;;;23.15;;
37997;SDS011;24079;51.824;4.682;2023-03-01T04:33:21;34.50;;;22.90;;
37997;SDS011;24079;51.824;4.682;2023-03-01T04:35:47;37.33;;;23.17;;
37997;SDS011;24079;51.824;4.682;2023-03-01T04:38:19;35.75;;;23.48;;
37997;SDS011;24079;51.824;4.682;2023-03-01T04:40:46;36.80;;;23.50;;
37997;SDS011;24079;51.824;4.682;2023-03-01T04:43:12;32.92;;;21.52;;
37997;SDS011;24079;51.824;4.682;2023-03-01T04:45:41;33.60;;;22.33;;
37997;SDS011;24079;51.824;4.682;2023-03-01T04:48:07;33.65;;;23.05;;
37997;SDS011;24079;51.824;4.682;2023-03-01T04:50:33;35.10;;;22.00;;
37997;SDS011;24079;51.824;4.682;2023-03-01T04:52:59;34.42;;;22.63;;
37997;SDS011;24079;51.824;4.682;2023-03-01T04:55:25;36.58;;;22.00;;
37997;SDS011;24079;51.824;4.682;2023-03-01T04:57:52;36.10;;;22.40;;
37997;SDS011;24079;51.824;4.682;2023-03-01T05:00:18;35.67;;;22.20;;
37997;SDS011;24079;51.824;4.682;2023-03-01T05:05:21;33.03;;;21.70;;
37997;SDS011;24079;51.824;4.682;2023-03-01T05:07:52;33.83;;;21.73;;
37997;SDS011;24079;51.824;4.682;2023-03-01T05:10:20;31.60;;;20.85;;
37997;SDS011;24079;51.824;4.682;2023-03-01T05:12:47;37.20;;;22.83;;
37997;SDS011;24079;51.824;4.682;2023-03-01T05:15:13;33.28;;;21.55;;
37997;SDS011;24079;51.824;4.682;2023-03-01T05:17:39;35.17;;;21.50;;
37997;SDS011;24079;51.824;4.682;2023-03-01T05:20:04;32.83;;;21.10;;
37997;SDS011;24079;51.824;4.682;2023-03-01T05:22:34;35.35;;;22.00;;
37997;SDS011;24079;51.824;4.682;2023-03-01T05:25:00;34.38;;;21.13;;
37997;SDS011;24079;51.824;4.682;2023-03-01T05:27:26;35.08;;;22.17;;
37997;SDS011;24079;51.824;4.682;2023-03-01T05:29:53;32.70;;;21.80;;
37997;SDS011;24079;51.824;4.682;2023-03-01T05:32:19;34.20;;;22.15;;
37997;SDS011;24079;51.824;4.682;2023-03-01T05:34:45;33.53;;;21.05;;
37997;SDS011;24079;51.824;4.682;2023-03-01T05:37:11;35.25;;;23.05;;
37997;SDS011;24079;51.824;4.682;2023-03-01T05:39:38;35.25;;;22.63;;
37997;SDS011;24079;51.824;4.682;2023-03-01T05:42:04;30.90;;;20.83;;
37997;SDS011;24079;51.824;4.682;2023-03-01T05:44:30;30.75;;;20.40;;
37997;SDS011;24079;51.824;4.682;2023-03-01T05:46:55;33.20;;;19.98;;
37997;SDS011;24079;51.824;4.682;2023-03-01T05:49:21;32.92;;;20.98;;
37997;SDS011;24079;51.824;4.682;2023-03-01T05:51:50;28.92;;;19.63;;
37997;SDS011;24079;51.824;4.682;2023-03-01T05:54:16;32.58;;;19.75;;
37997;SDS011;24079;51.824;4.682;2023-03-01T05:56:43;27.63;;;18.42;;
37997;SDS011;24079;51.824;4.682;2023-03-01T05:59:09;29.67;;;20.33;;
37997;SDS011;24079;51.824;4.682;2023-03-01T06:01:36;32.10;;;19.42;;
37997;SDS011;24079;51.824;4.682;2023-03-01T06:04:02;29.75;;;19.55;;
37997;SDS011;24079;51.824;4.682;2023-03-01T06:06:29;29.83;;;19.15;;
37997;SDS011;24079;51.824;4.682;2023-03-01T06:08:58;30.90;;;19.00;;
37997;SDS011;24079;51.824;4.682;2023-03-01T06:11:23;34.17;;;21.23;;
37997;SDS011;24079;51.824;4.682;2023-03-01T06:13:49;32.55;;;19.98;;
37997;SDS011;24079;51.824;4.682;2023-03-01T06:16:15;31.58;;;20.25;;
37997;SDS011;24079;51.824;4.682;2023-03-01T06:18:41;32.25;;;19.83;;
37997;SDS011;24079;51.824;4.682;2023-03-01T06:21:07;30.88;;;19.33;;
37997;SDS011;24079;51.824;4.682;2023-03-01T06:23:33;27.77;;;18.95;;
37997;SDS011;24079;51.824;4.682;2023-03-01T06:25:59;29.75;;;20.33;;
37997;SDS011;24079;51.824;4.682;2023-03-01T06:28:25;30.95;;;19.65;;
37997;SDS011;24079;51.824;4.682;2023-03-01T06:30:51;32.10;;;19.73;;
37997;SDS011;24079;51.824;4.682;2023-03-01T06:33:17;32.95;;;19.15;;
37997;SDS011;24079;51.824;4.682;2023-03-01T06:35:45;34.10;;;19.85;;
37997;SDS011;24079;51.824;4.682;2023-03-01T06:38:11;33.50;;;20.33;;
37997;SDS011;24079;51.824;4.682;2023-03-01T06:40:39;28.48;;;19.13;;
37997;SDS011;24079;51.824;4.682;2023-03-01T06:43:06;32.92;;;20.10;;
37997;SDS011;24079;51.824;4.682;2023-03-01T06:45:32;29.45;;;19.95;;
37997;SDS011;24079;51.824;4.682;2023-03-01T06:48:01;28.85;;;18.48;;
37997;SDS011;24079;51.824;4.682;2023-03-01T06:50:31;29.15;;;19.15;;
37997;SDS011;24079;51.824;4.682;2023-03-01T06:52:57;26.15;;;18.25;;
37997;SDS011;24079;51.824;4.682;2023-03-01T06:55:23;28.23;;;17.75;;
37997;SDS011;24079;51.824;4.682;2023-03-01T06:57:53;28.95;;;19.08;;
37997;SDS011;24079;51.824;4.682;2023-03-01T07:00:20;31.05;;;19.55;;
37997;SDS011;24079;51.824;4.682;2023-03-01T07:02:46;29.20;;;18.52;;
37997;SDS011;24079;51.824;4.682;2023-03-01T07:05:11;27.88;;;19.10;;
37997;SDS011;24079;51.824;4.682;2023-03-01T07:07:37;37.83;;;20.15;;
37997;SDS011;24079;51.824;4.682;2023-03-01T07:10:04;32.38;;;20.88;;
37997;SDS011;24079;51.824;4.682;2023-03-01T07:12:31;28.73;;;19.60;;
37997;SDS011;24079;51.824;4.682;2023-03-01T07:14:57;30.80;;;20.33;;
37997;SDS011;24079;51.824;4.682;2023-03-01T07:17:23;31.88;;;20.05;;
37997;SDS011;24079;51.824;4.682;2023-03-01T07:19:49;30.70;;;20.33;;
37997;SDS011;24079;51.824;4.682;2023-03-01T07:22:15;35.78;;;21.42;;
37997;SDS011;24079;51.824;4.682;2023-03-01T07:24:42;28.45;;;19.10;;
37997;SDS011;24079;51.824;4.682;2023-03-01T07:27:09;32.65;;;20.42;;
37997;SDS011;24079;51.824;4.682;2023-03-01T07:29:35;29.95;;;18.90;;
37997;SDS011;24079;51.824;4.682;2023-03-01T07:32:04;28.95;;;20.40;;
37997;SDS011;24079;51.824;4.682;2023-03-01T07:34:31;36.03;;;20.67;;
37997;SDS011;24079;51.824;4.682;2023-03-01T07:36:57;31.27;;;20.40;;
37997;SDS011;24079;51.824;4.682;2023-03-01T07:39:23;30.05;;;19.88;;
37997;SDS011;24079;51.824;4.682;2023-03-01T07:41:49;29.75;;;20.05;;
37997;SDS011;24079;51.824;4.682;2023-03-01T07:44:16;29.17;;;19.80;;
37997;SDS011;24079;51.824;4.682;2023-03-01T07:46:43;32.05;;;21.02;;
37997;SDS011;24079;51.824;4.682;2023-03-01T07:49:09;30.27;;;19.27;;
37997;SDS011;24079;51.824;4.682;2023-03-01T07:51:35;31.40;;;18.52;;
37997;SDS011;24079;51.824;4.682;2023-03-01T07:54:02;27.58;;;18.77;;
37997;SDS011;24079;51.824;4.682;2023-03-01T07:56:28;30.83;;;18.33;;
37997;SDS011;24079;51.824;4.682;2023-03-01T07:58:54;37.08;;;18.65;;
37997;SDS011;24079;51.824;4.682;2023-03-01T08:01:20;25.30;;;16.75;;
37997;SDS011;24079;51.824;4.682;2023-03-01T08:03:47;28.50;;;17.02;;
37997;SDS011;24079;51.824;4.682;2023-03-01T08:06:13;30.00;;;17.95;;
37997;SDS011;24079;51.824;4.682;2023-03-01T08:08:40;27.27;;;16.65;;
37997;SDS011;24079;51.824;4.682;2023-03-01T08:11:07;25.30;;;15.75;;
37997;SDS011;24079;51.824;4.682;2023-03-01T08:13:34;24.60;;;16.90;;
37997;SDS011;24079;51.824;4.682;2023-03-01T08:16:04;25.05;;;15.63;;
37997;SDS011;24079;51.824;4.682;2023-03-01T08:18:31;26.20;;;16.10;;
37997;SDS011;24079;51.824;4.682;2023-03-01T08:21:01;22.27;;;14.95;;
37997;SDS011;24079;51.824;4.682;2023-03-01T08:23:31;22.80;;;13.55;;
37997;SDS011;24079;51.824;4.682;2023-03-01T08:26:04;22.80;;;13.63;;
37997;SDS011;24079;51.824;4.682;2023-03-01T08:28:37;20.25;;;13.38;;
37997;SDS011;24079;51.824;4.682;2023-03-01T08:31:02;19.52;;;12.48;;
37997;SDS011;24079;51.824;4.682;2023-03-01T08:33:37;15.38;;;10.20;;
37997;SDS011;24079;51.824;4.682;2023-03-01T08:36:04;16.60;;;11.13;;
37997;SDS011;24079;51.824;4.682;2023-03-01T08:38:31;17.92;;;10.35;;
37997;SDS011;24079;51.824;4.682;2023-03-01T08:41:02;17.88;;;9.20;;
37997;SDS011;24079;51.824;4.682;2023-03-01T08:43:28;17.95;;;9.40;;
37997;SDS011;24079;51.824;4.682;2023-03-01T08:45:54;14.68;;;8.85;;
37997;SDS011;24079;51.824;4.682;2023-03-01T08:48:19;14.55;;;8.73;;
37997;SDS011;24079;51.824;4.682;2023-03-01T08:50:46;13.63;;;8.77;;
37997;SDS011;24079;51.824;4.682;2023-03-01T08:53:11;16.08;;;8.68;;
37997;SDS011;24079;51.824;4.682;2023-03-01T08:55:37;13.25;;;8.77;;
37997;SDS011;24079;51.824;4.682;2023-03-01T08:58:02;13.90;;;7.85;;
37997;SDS011;24079;51.824;4.682;2023-03-01T09:00:28;14.18;;;8.27;;
37997;SDS011;24079;51.824;4.682;2023-03-01T09:02:54;18.13;;;7.85;;
37997;SDS011;24079;51.824;4.682;2023-03-01T09:05:19;13.32;;;8.60;;
37997;SDS011;24079;51.824;4.682;2023-03-01T09:07:45;12.75;;;7.63;;
37997;SDS011;24079;51.824;4.682;2023-03-01T09:10:10;12.85;;;8.20;;
37997;SDS011;24079;51.824;4.682;2023-03-01T09:12:36;12.85;;;7.78;;
37997;SDS011;24079;51.824;4.682;2023-03-01T09:15:02;15.13;;;8.02;;
37997;SDS011;24079;51.824;4.682;2023-03-01T09:17:28;14.20;;;7.22;;
37997;SDS011;24079;51.824;4.682;2023-03-01T09:19:53;12.10;;;7.25;;
37997;SDS011;24079;51.824;4.682;2023-03-01T09:22:19;11.48;;;7.30;;
37997;SDS011;24079;51.824;4.682;2023-03-01T09:24:45;11.85;;;6.75;;
37997;SDS011;24079;51.824;4.682;2023-03-01T09:27:10;13.02;;;7.35;;
37997;SDS011;24079;51.824;4.682;2023-03-01T09:29:37;11.43;;;6.57;;
37997;SDS011;24079;51.824;4.682;2023-03-01T09:32:03;10.88;;;6.60;;
37997;SDS011;24079;51.824;4.682;2023-03-01T09:34:29;12.73;;;6.65;;
37997;SDS011;24079;51.824;4.682;2023-03-01T09:36:54;11.50;;;6.15;;
37997;SDS011;24079;51.824;4.682;2023-03-01T09:39:22;9.63;;;6.20;;
37997;SDS011;24079;51.824;4.682;2023-03-01T09:41:49;13.23;;;6.30;;
37997;SDS011;24079;51.824;4.682;2023-03-01T09:47:21;12.90;;;5.47;;
37997;SDS011;24079;51.824;4.682;2023-03-01T09:50:00;11.68;;;6.40;;
37997;SDS011;24079;51.824;4.682;2023-03-01T09:52:38;11.57;;;6.00;;
37997;SDS011;24079;51.824;4.682;2023-03-01T09:55:11;14.40;;;5.50;;
37997;SDS011;24079;51.824;4.682;2023-03-01T09:57:41;11.90;;;6.47;;
37997;SDS011;24079;51.824;4.682;2023-03-01T10:10:54;8.45;;;5.85;;
37997;SDS011;24079;51.824;4.682;2023-03-01T10:15:57;13.18;;;5.93;;
37997;SDS011;24079;51.824;4.682;2023-03-01T10:18:29;9.93;;;5.38;;
37997;SDS011;24079;51.824;4.682;2023-03-01T10:21:01;9.52;;;5.30;;
37997;SDS011;24079;51.824;4.682;2023-03-01T10:23:34;8.10;;;4.82;;
37997;SDS011;24079;51.824;4.682;2023-03-01T10:29:04;12.93;;;5.57;;
37997;SDS011;24079;51.824;4.682;2023-03-01T10:34:17;10.73;;;4.30;;
37997;SDS011;24079;51.824;4.682;2023-03-01T10:36:43;7.80;;;3.90;;
37997;SDS011;24079;51.824;4.682;2023-03-01T10:39:17;7.95;;;4.50;;
37997;SDS011;24079;51.824;4.682;2023-03-01T10:41:52;9.40;;;4.47;;
37997;SDS011;24079;51.824;4.682;2023-03-01T10:47:25;10.80;;;4.70;;
37997;SDS011;24079;51.824;4.682;2023-03-01T10:49:53;7.18;;;4.00;;
37997;SDS011;24079;51.824;4.682;2023-03-01T10:52:31;7.72;;;4.55;;
37997;SDS011;24079;51.824;4.682;2023-03-01T10:54:58;8.32;;;4.20;;
37997;SDS011;24079;51.824;4.682;2023-03-01T10:57:31;8.15;;;4.15;;
37997;SDS011;24079;51.824;4.682;2023-03-01T11:00:24;7.60;;;4.20;;
37997;SDS011;24079;51.824;4.682;2023-03-01T11:05:35;9.30;;;4.00;;
37997;SDS011;24079;51.824;4.682;2023-03-01T11:08:01;8.15;;;4.07;;
37997;SDS011;24079;51.824;4.682;2023-03-01T11:12:54;9.20;;;3.55;;
37997;SDS011;24079;51.824;4.682;2023-03-01T11:15:39;7.97;;;4.40;;
37997;SDS011;24079;51.824;4.682;2023-03-01T11:18:05;5.65;;;3.70;;
37997;SDS011;24079;51.824;4.682;2023-03-01T11:20:46;9.52;;;4.15;;
37997;SDS011;24079;51.824;4.682;2023-03-01T11:23:16;8.57;;;4.00;;
37997;SDS011;24079;51.824;4.682;2023-03-01T11:25:43;7.38;;;3.70;;
37997;SDS011;24079;51.824;4.682;2023-03-01T11:28:16;8.10;;;4.47;;
37997;SDS011;24079;51.824;4.682;2023-03-01T11:33:34;8.70;;;4.35;;
37997;SDS011;24079;51.824;4.682;2023-03-01T11:36:23;10.38;;;4.25;;
37997;SDS011;24079;51.824;4.682;2023-03-01T11:39:20;5.57;;;3.60;;
37997;SDS011;24079;51.824;4.682;2023-03-01T11:42:15;5.45;;;3.08;;
37997;SDS011;24079;51.824;4.682;2023-03-01T11:44:46;8.15;;;3.50;;
37997;SDS011;24079;51.824;4.682;2023-03-01T11:58:20;8.00;;;3.90;;
37997;SDS011;24079;51.824;4.682;2023-03-01T12:17:02;7.68;;;4.20;;
37997;SDS011;24079;51.824;4.682;2023-03-01T12:22:30;13.40;;;4.15;;
37997;SDS011;24079;51.824;4.682;2023-03-01T12:25:04;9.00;;;4.35;;
37997;SDS011;24079;51.824;4.682;2023-03-01T12:30:27;6.80;;;4.18;;
37997;SDS011;24079;51.824;4.682;2023-03-01T12:39:00;12.88;;;4.53;;
37997;SDS011;24079;51.824;4.682;2023-03-01T12:47:50;6.78;;;4.32;;
37997;SDS011;24079;51.824;4.682;2023-03-01T12:50:26;7.68;;;4.63;;
37997;SDS011;24079;51.824;4.682;2023-03-01T12:53:23;9.25;;;5.15;;
37997;SDS011;24079;51.824;4.682;2023-03-01T12:56:00;8.27;;;4.60;;
37997;SDS011;24079;51.824;4.682;2023-03-01T13:11:59;8.90;;;4.80;;
37997;SDS011;24079;51.824;4.682;2023-03-01T13:16:53;9.73;;;4.30;;
37997;SDS011;24079;51.824;4.682;2023-03-01T13:19:21;9.05;;;4.45;;
37997;SDS011;24079;51.824;4.682;2023-03-01T13:21:51;8.02;;;4.78;;
37997;SDS011;24079;51.824;4.682;2023-03-01T13:24:28;7.07;;;4.35;;
37997;SDS011;24079;51.824;4.682;2023-03-01T13:29:50;7.60;;;3.95;;
37997;SDS011;24079;51.824;4.682;2023-03-01T13:32:23;9.70;;;4.40;;
37997;SDS011;24079;51.824;4.682;2023-03-01T13:34:53;8.10;;;4.30;;
37997;SDS011;24079;51.824;4.682;2023-03-01T13:37:31;6.93;;;4.35;;
37997;SDS011;24079;51.824;4.682;2023-03-01T13:40:00;8.32;;;3.75;;
37997;SDS011;24079;51.824;4.682;2023-03-01T13:42:34;8.95;;;4.18;;
37997;SDS011;24079;51.824;4.682;2023-03-01T13:45:04;9.00;;;4.10;;
37997;SDS011;24079;51.824;4.682;2023-03-01T13:47:58;7.47;;;3.78;;
37997;SDS011;24079;51.824;4.682;2023-03-01T13:50:28;7.18;;;4.47;;
37997;SDS011;24079;51.824;4.682;2023-03-01T13:52:58;9.07;;;4.13;;
37997;SDS011;24079;51.824;4.682;2023-03-01T13:55:43;5.45;;;3.72;;
37997;SDS011;24079;51.824;4.682;2023-03-01T13:58:22;7.97;;;3.95;;
37997;SDS011;24079;51.824;4.682;2023-03-01T14:00:57;8.02;;;4.13;;
37997;SDS011;24079;51.824;4.682;2023-03-01T14:03:29;9.15;;;3.67;;
37997;SDS011;24079;51.824;4.682;2023-03-01T14:08:27;9.02;;;4.05;;
37997;SDS011;24079;51.824;4.682;2023-03-01T14:19:23;8.88;;;3.78;;
37997;SDS011;24079;51.824;4.682;2023-03-01T14:24:47;7.85;;;3.97;;
37997;SDS011;24079;51.824;4.682;2023-03-01T14:27:17;6.03;;;4.10;;
37997;SDS011;24079;51.824;4.682;2023-03-01T14:29:45;8.98;;;4.25;;
37997;SDS011;24079;51.824;4.682;2023-03-01T14:32:22;9.93;;;3.97;;
37997;SDS011;24079;51.824;4.682;2023-03-01T14:34:51;5.60;;;4.38;;
37997;SDS011;24079;51.824;4.682;2023-03-01T14:37:22;7.43;;;4.30;;
37997;SDS011;24079;51.824;4.682;2023-03-01T14:39:54;8.63;;;4.28;;
37997;SDS011;24079;51.824;4.682;2023-03-01T14:42:22;8.13;;;4.25;;
37997;SDS011;24079;51.824;4.682;2023-03-01T14:44:50;7.35;;;4.15;;
37997;SDS011;24079;51.824;4.682;2023-03-01T14:47:36;5.63;;;3.85;;
37997;SDS011;24079;51.824;4.682;2023-03-01T14:50:07;7.00;;;4.22;;
37997;SDS011;24079;51.824;4.682;2023-03-01T14:52:36;8.05;;;4.00;;
37997;SDS011;24079;51.824;4.682;2023-03-01T14:55:05;8.13;;;4.90;;
37997;SDS011;24079;51.824;4.682;2023-03-01T14:57:42;7.45;;;4.15;;
37997;SDS011;24079;51.824;4.682;2023-03-01T15:00:10;8.13;;;4.25;;
37997;SDS011;24079;51.824;4.682;2023-03-01T15:02:46;8.75;;;4.45;;
37997;SDS011;24079;51.824;4.682;2023-03-01T15:05:15;7.95;;;4.35;;
37997;SDS011;24079;51.824;4.682;2023-03-01T15:07:43;5.90;;;4.35;;
37997;SDS011;24079;51.824;4.682;2023-03-01T15:10:21;7.70;;;4.15;;
37997;SDS011;24079;51.824;4.682;2023-03-01T15:12:48;7.93;;;4.40;;
37997;SDS011;24079;51.824;4.682;2023-03-01T15:15:22;9.65;;;4.00;;
37997;SDS011;24079;51.824;4.682;2023-03-01T15:20:25;9.50;;;4.90;;
37997;SDS011;24079;51.824;4.682;2023-03-01T15:22:55;10.27;;;4.60;;
37997;SDS011;24079;51.824;4.682;2023-03-01T15:25:23;10.65;;;4.47;;
37997;SDS011;24079;51.824;4.682;2023-03-01T15:27:51;11.07;;;4.38;;
37997;SDS011;24079;51.824;4.682;2023-03-01T15:30:26;8.20;;;4.05;;
37997;SDS011;24079;51.824;4.682;2023-03-01T15:35:48;8.30;;;4.80;;
37997;SDS011;24079;51.824;4.682;2023-03-01T15:41:01;8.32;;;4.32;;
37997;SDS011;24079;51.824;4.682;2023-03-01T15:43:42;9.10;;;4.45;;
37997;SDS011;24079;51.824;4.682;2023-03-01T15:46:17;9.07;;;4.80;;
37997;SDS011;24079;51.824;4.682;2023-03-01T15:48:50;9.63;;;4.70;;
37997;SDS011;24079;51.824;4.682;2023-03-01T15:51:21;7.28;;;4.85;;
37997;SDS011;24079;51.824;4.682;2023-03-01T15:53:52;8.45;;;4.38;;
37997;SDS011;24079;51.824;4.682;2023-03-01T15:56:18;7.57;;;4.10;;
37997;SDS011;24079;51.824;4.682;2023-03-01T15:58:44;7.00;;;4.30;;
37997;SDS011;24079;51.824;4.682;2023-03-01T16:01:13;6.93;;;4.10;;
37997;SDS011;24079;51.824;4.682;2023-03-01T16:03:41;10.68;;;4.85;;
37997;SDS011;24079;51.824;4.682;2023-03-01T16:06:11;13.00;;;4.40;;
37997;SDS011;24079;51.824;4.682;2023-03-01T16:08:37;7.68;;;3.55;;
37997;SDS011;24079;51.824;4.682;2023-03-01T16:11:14;7.20;;;3.97;;
37997;SDS011;24079;51.824;4.682;2023-03-01T16:13:41;8.43;;;4.40;;
37997;SDS011;24079;51.824;4.682;2023-03-01T16:16:09;9.05;;;4.25;;
37997;SDS011;24079;51.824;4.682;2023-03-01T16:18:39;8.35;;;4.43;;
37997;SDS011;24079;51.824;4.682;2023-03-01T16:21:05;7.35;;;3.88;;
37997;SDS011;24079;51.824;4.682;2023-03-01T16:23:31;7.18;;;4.30;;
37997;SDS011;24079;51.824;4.682;2023-03-01T16:26:00;6.82;;;4.45;;
37997;SDS011;24079;51.824;4.682;2023-03-01T16:28:26;8.05;;;4.07;;
37997;SDS011;24079;51.824;4.682;2023-03-01T16:30:52;10.40;;;4.35;;
37997;SDS011;24079;51.824;4.682;2023-03-01T16:33:17;9.07;;;4.30;;
37997;SDS011;24079;51.824;4.682;2023-03-01T16:35:43;7.35;;;4.25;;
37997;SDS011;24079;51.824;4.682;2023-03-01T16:38:09;10.43;;;4.75;;
37997;SDS011;24079;51.824;4.682;2023-03-01T16:40:35;9.90;;;4.80;;
37997;SDS011;24079;51.824;4.682;2023-03-01T16:43:01;8.60;;;5.07;;
37997;SDS011;24079;51.824;4.682;2023-03-01T16:45:28;6.88;;;3.92;;
37997;SDS011;24079;51.824;4.682;2023-03-01T16:48:01;8.73;;;4.53;;
37997;SDS011;24079;51.824;4.682;2023-03-01T16:50:28;8.13;;;4.57;;
37997;SDS011;24079;51.824;4.682;2023-03-01T16:52:53;9.02;;;4.30;;
37997;SDS011;24079;51.824;4.682;2023-03-01T16:55:19;7.28;;;4.75;;
37997;SDS011;24079;51.824;4.682;2023-03-01T16:57:45;5.68;;;4.03;;
37997;SDS011;24079;51.824;4.682;2023-03-01T17:00:11;9.45;;;4.78;;
37997;SDS011;24079;51.824;4.682;2023-03-01T17:02:38;8.10;;;4.70;;
37997;SDS011;24079;51.824;4.682;2023-03-01T17:05:06;9.00;;;5.35;;